Time;durP1;ratioP1;P1;durP2;ratioP2;P2;SDS_P1;SDS_P2;PMS_P1;PMS_P2;Temp;Humidity;BMP_temperature;BMP_pressure;BME280_temperature;BME280_humidity;BME280_pressure;Samples;Min_cycle;Max_cycle;Signal;HPM_P1;HPM_P2
2023/06/19 00:00:32;;;;;;;7.20;5.05;;;;;;;;;;5090655;28;20562;-79
2023/06/19 00:02:58;;;;;;;8.45;5.65;;;;;;;;;;5072402;28;20093;-80
2023/06/19 00:05:25;;;;;;;7.75;5.45;;;;;;;;;;5090642;28;20083;-80
2023/06/19 00:07:51;;;;;;;8.38;5.82;;;;;;;;;;5057865;28;20051;-80
2023/06/19 00:10:17;;;;;;;7.03;4.97;;;;;;;;;;5069431;28;20055;-80
2023/06/19 00:12:43;;;;;;;8.88;5.78;;;;;;;;;;5061626;28;20052;-80
2023/06/19 00:15:10;;;;;;;8.38;5.55;;;;;;;;;;5073315;28;20573;-80
2023/06/19 00:17:39;;;;;;;7.80;5.20;;;;;;;;;;5052697;28;20482;-80
2023/06/19 00:20:05;;;;;;;10.00;6.60;;;;;;;;;;5051658;28;20053;-80
2023/06/19 00:22:31;;;;;;;9.60;6.38;;;;;;;;;;5033048;28;20048;-80
2023/06/19 00:24:58;;;;;;;7.63;5.47;;;;;;;;;;5049535;28;20048;-79
2023/06/19 00:27:24;;;;;;;7.55;5.20;;;;;;;;;;5058789;28;20098;-80
2023/06/19 00:29:51;;;;;;;8.52;5.70;;;;;;;;;;5064960;28;20040;-80
2023/06/19 00:32:17;;;;;;;8.82;5.90;;;;;;;;;;5065537;28;20810;-80
2023/06/19 00:34:43;;;;;;;8.23;5.65;;;;;;;;;;5080485;28;20120;-80
2023/06/19 00:37:12;;;;;;;7.85;5.35;;;;;;;;;;5068888;28;20052;-80
2023/06/19 00:39:39;;;;;;;8.63;5.38;;;;;;;;;;5069948;28;20056;-80
2023/06/19 00:42:06;;;;;;;7.57;4.93;;;;;;;;;;5068917;28;20044;-80
2023/06/19 00:44:32;;;;;;;6.95;4.47;;;;;;;;;;5069775;28;20080;-80
2023/06/19 00:46:59;;;;;;;7.85;4.80;;;;;;;;;;5051778;28;20051;-80
2023/06/19 00:49:26;;;;;;;7.40;4.90;;;;;;;;;;5039390;28;20049;-80
2023/06/19 00:51:53;;;;;;;9.77;5.90;;;;;;;;;;5055698;28;20052;-80
2023/06/19 00:54:19;;;;;;;6.63;4.60;;;;;;;;;;5067609;28;20045;-80
2023/06/19 00:56:46;;;;;;;9.38;5.18;;;;;;;;;;5069405;28;20052;-80
2023/06/19 00:59:15;;;;;;;8.30;5.53;;;;;;;;;;5051026;28;20048;-80
2023/06/19 01:01:42;;;;;;;7.65;5.20;;;;;;;;;;5049463;28;20068;-80
2023/06/19 01:04:08;;;;;;;6.75;4.40;;;;;;;;;;5048225;28;20057;-80
2023/06/19 01:06:39;;;;;;;7.95;5.60;;;;;;;;;;5049200;28;20115;-80
2023/06/19 01:09:07;;;;;;;7.95;5.40;;;;;;;;;;5051410;28;20496;-79
2023/06/19 01:11:37;;;;;;;6.90;4.40;;;;;;;;;;5069504;28;20051;-80
2023/06/19 01:14:11;;;;;;;5.28;3.70;;;;;;;;;;5068954;28;20055;-80
2023/06/19 01:16:37;;;;;;;8.52;5.75;;;;;;;;;;5063445;28;20052;-80
2023/06/19 01:19:04;;;;;;;8.95;5.40;;;;;;;;;;5067931;28;20378;-80
2023/06/19 01:21:31;;;;;;;7.88;5.20;;;;;;;;;;5059172;28;20057;-80
2023/06/19 01:23:57;;;;;;;9.43;5.93;;;;;;;;;;5049571;28;20053;-80
2023/06/19 01:26:27;;;;;;;7.80;5.35;;;;;;;;;;5032376;28;20103;-80
2023/06/19 01:28:57;;;;;;;8.00;5.53;;;;;;;;;;5049356;28;20044;-80
2023/06/19 01:31:30;;;;;;;7.55;5.35;;;;;;;;;;5032136;28;20148;-80
2023/06/19 01:33:56;;;;;;;8.40;5.47;;;;;;;;;;5055865;28;20048;-80
2023/06/19 01:36:23;;;;;;;9.68;5.70;;;;;;;;;;5062602;28;20051;-79
2023/06/19 01:38:50;;;;;;;9.60;5.82;;;;;;;;;;5066186;28;20048;-80
2023/06/19 01:41:17;;;;;;;8.70;5.80;;;;;;;;;;5074842;28;20056;-80
2023/06/19 01:43:43;;;;;;;7.70;5.30;;;;;;;;;;5049246;28;20052;-80
2023/06/19 01:46:09;;;;;;;10.25;6.22;;;;;;;;;;5081282;28;20390;-80
2023/06/19 01:48:36;;;;;;;10.93;5.43;;;;;;;;;;5055506;28;20114;-80
2023/06/19 01:51:03;;;;;;;10.23;5.60;;;;;;;;;;5055854;28;20059;-80
2023/06/19 01:53:31;;;;;;;8.18;5.53;;;;;;;;;;5072352;28;20131;-80
2023/06/19 01:55:57;;;;;;;9.68;5.85;;;;;;;;;;5080466;28;20098;-81
2023/06/19 01:58:23;;;;;;;9.35;5.95;;;;;;;;;;5075967;28;20119;-80
2023/06/19 02:00:49;;;;;;;10.48;5.55;;;;;;;;;;5073684;28;20053;-81
2023/06/19 02:03:15;;;;;;;8.32;5.88;;;;;;;;;;5083356;28;20482;-80
2023/06/19 02:05:42;;;;;;;10.55;6.15;;;;;;;;;;5074858;28;20048;-79
2023/06/19 02:08:08;;;;;;;7.13;5.20;;;;;;;;;;5057072;28;20374;-80
2023/06/19 02:10:34;;;;;;;7.75;5.07;;;;;;;;;;5068447;28;20777;-80
2023/06/19 02:13:00;;;;;;;12.25;6.53;;;;;;;;;;5085786;28;20083;-80
2023/06/19 02:15:26;;;;;;;9.93;6.75;;;;;;;;;;5074676;28;20108;-80
2023/06/19 02:17:54;;;;;;;9.05;5.60;;;;;;;;;;5070334;28;20055;-80
2023/06/19 02:20:24;;;;;;;7.72;4.90;;;;;;;;;;5071471;28;20048;-80
2023/06/19 02:22:51;;;;;;;8.98;5.78;;;;;;;;;;5060263;28;20113;-80
2023/06/19 02:25:17;;;;;;;9.07;5.85;;;;;;;;;;5051830;28;20049;-80
2023/06/19 02:27:43;;;;;;;7.60;5.55;;;;;;;;;;5079319;28;20041;-80
2023/06/19 02:30:10;;;;;;;9.52;6.13;;;;;;;;;;5071434;28;20063;-80
2023/06/19 02:32:36;;;;;;;8.77;6.00;;;;;;;;;;5071405;28;20129;-80
2023/06/19 02:35:02;;;;;;;11.07;7.22;;;;;;;;;;5072188;28;20052;-80
2023/06/19 02:37:29;;;;;;;10.18;6.13;;;;;;;;;;5067596;28;20114;-80
2023/06/19 02:39:55;;;;;;;13.77;6.90;;;;;;;;;;5066426;28;20060;-80
2023/06/19 02:42:21;;;;;;;10.50;6.38;;;;;;;;;;5068233;28;20137;-80
2023/06/19 02:44:47;;;;;;;10.40;6.68;;;;;;;;;;5068318;28;20052;-80
2023/06/19 02:47:14;;;;;;;9.45;6.13;;;;;;;;;;5051172;28;20057;-80
2023/06/19 02:49:40;;;;;;;9.90;6.40;;;;;;;;;;5050872;28;20049;-80
2023/06/19 02:52:06;;;;;;;9.77;6.35;;;;;;;;;;5069273;28;20123;-80
2023/06/19 02:54:32;;;;;;;11.75;6.22;;;;;;;;;;5054865;28;20052;-80
2023/06/19 02:56:59;;;;;;;9.82;6.38;;;;;;;;;;5036695;28;20075;-80
2023/06/19 02:59:25;;;;;;;11.27;6.28;;;;;;;;;;5051316;28;20053;-76
2023/06/19 03:01:52;;;;;;;8.48;5.97;;;;;;;;;;5053916;28;20053;-81
2023/06/19 03:04:18;;;;;;;10.10;6.47;;;;;;;;;;5035395;28;20659;-81
2023/06/19 03:06:44;;;;;;;10.18;6.47;;;;;;;;;;5039706;28;20449;-83
2023/06/19 03:09:13;;;;;;;10.90;5.68;;;;;;;;;;5034493;28;20049;-81
2023/06/19 03:11:40;;;;;;;12.65;6.63;;;;;;;;;;5034855;28;20565;-82
2023/06/19 03:14:07;;;;;;;9.13;5.47;;;;;;;;;;5051414;28;20064;-81
2023/06/19 03:16:33;;;;;;;9.63;6.10;;;;;;;;;;5050910;28;20052;-79
2023/06/19 03:19:00;;;;;;;12.05;6.28;;;;;;;;;;5034359;28;20489;-79
2023/06/19 03:21:26;;;;;;;9.52;6.35;;;;;;;;;;5066550;28;20106;-79
2023/06/19 03:23:52;;;;;;;9.52;6.25;;;;;;;;;;5086643;28;20048;-80
2023/06/19 03:26:21;;;;;;;10.23;6.18;;;;;;;;;;5054156;28;20553;-82
2023/06/19 03:28:47;;;;;;;7.97;5.75;;;;;;;;;;5050905;28;20053;-81
2023/06/19 03:31:14;;;;;;;9.50;5.50;;;;;;;;;;5050201;28;20053;-80
2023/06/19 03:33:40;;;;;;;8.68;6.00;;;;;;;;;;5051918;28;20060;-83
2023/06/19 03:36:06;;;;;;;9.88;6.30;;;;;;;;;;5073307;28;20061;-82
2023/06/19 03:38:32;;;;;;;10.52;6.00;;;;;;;;;;5086022;28;20048;-82
2023/06/19 03:40:58;;;;;;;9.35;6.20;;;;;;;;;;5090514;28;20040;-82
2023/06/19 03:43:24;;;;;;;9.50;5.90;;;;;;;;;;5089476;28;20059;-79
2023/06/19 03:45:50;;;;;;;9.45;5.85;;;;;;;;;;5073628;28;20107;-81
2023/06/19 03:48:16;;;;;;;9.73;5.65;;;;;;;;;;5088670;28;20513;-80
2023/06/19 03:50:42;;;;;;;10.60;5.85;;;;;;;;;;5047403;28;20044;-81
2023/06/19 03:53:08;;;;;;;9.38;5.93;;;;;;;;;;5098892;28;20048;-80
2023/06/19 03:55:35;;;;;;;8.15;5.53;;;;;;;;;;5072383;28;20059;-82
2023/06/19 03:58:01;;;;;;;9.30;5.45;;;;;;;;;;5093869;28;20470;-80
2023/06/19 04:00:27;;;;;;;9.15;5.25;;;;;;;;;;5090130;28;20497;-79
2023/06/19 04:02:53;;;;;;;10.95;5.00;;;;;;;;;;5089582;28;20044;-80
2023/06/19 04:05:19;;;;;;;8.70;4.90;;;;;;;;;;5072760;28;20052;-78
2023/06/19 04:07:45;;;;;;;9.73;5.18;;;;;;;;;;5072583;28;20101;-79
2023/06/19 04:10:12;;;;;;;9.20;5.13;;;;;;;;;;5073313;28;20131;-76
2023/06/19 04:12:40;;;;;;;8.98;4.90;;;;;;;;;;5072789;28;20044;-79
2023/06/19 04:15:06;;;;;;;10.43;5.40;;;;;;;;;;5078996;28;20048;-80
2023/06/19 04:17:32;;;;;;;9.15;4.78;;;;;;;;;;5094031;28;20050;-81
2023/06/19 04:19:59;;;;;;;8.50;4.57;;;;;;;;;;5089445;28;20109;-81
2023/06/19 04:22:25;;;;;;;7.22;4.70;;;;;;;;;;5059010;28;20080;-78
2023/06/19 04:24:51;;;;;;;9.82;4.90;;;;;;;;;;5090104;28;20396;-81
2023/06/19 04:27:17;;;;;;;8.80;4.88;;;;;;;;;;5055625;28;20078;-78
2023/06/19 04:29:43;;;;;;;9.00;5.20;;;;;;;;;;5086062;28;20049;-81
2023/06/19 04:32:12;;;;;;;7.85;4.60;;;;;;;;;;5087518;28;20524;-80
2023/06/19 04:34:39;;;;;;;10.15;4.88;;;;;;;;;;5051928;28;20048;-76
2023/06/19 04:37:05;;;;;;;10.02;4.95;;;;;;;;;;5075397;28;20048;-79
2023/06/19 04:39:31;;;;;;;9.77;5.00;;;;;;;;;;5073054;28;20596;-80
2023/06/19 04:41:57;;;;;;;;;;;;;;;;;;5084779;28;20482;-77
2023/06/19 04:44:23;;;;;;;9.88;4.85;;;;;;;;;;5089343;28;19920;-77
2023/06/19 04:46:49;;;;;;;9.50;4.88;;;;;;;;;;5089321;28;20486;-80
2023/06/19 04:49:15;;;;;;;8.57;4.80;;;;;;;;;;5079117;28;20075;-81
2023/06/19 04:51:42;;;;;;;;;;;;;;;;;;5074182;28;20090;-82
2023/06/19 04:54:08;;;;;;;9.60;4.63;;;;;;;;;;5080162;28;20426;-76
2023/06/19 04:56:34;;;;;;;9.88;4.70;;;;;;;;;;5084017;28;20036;-78
2023/06/19 04:59:01;;;;;;;8.82;4.43;;;;;;;;;;5033447;28;20077;-79
2023/06/19 05:01:28;;;;;;;7.85;4.53;;;;;;;;;;5078825;28;20097;-79
2023/06/19 05:03:55;;;;;;;11.02;4.60;;;;;;;;;;5088527;28;20055;-78
2023/06/19 05:06:24;;;;;;;11.05;4.18;;;;;;;;;;5088280;28;20048;-78
2023/06/19 05:08:50;;;;;;;6.82;3.78;;;;;;;;;;5055697;28;20113;-79
2023/06/19 05:11:16;;;;;;;8.65;4.20;;;;;;;;;;5066365;28;20453;-82
2023/06/19 05:13:43;;;;;;;7.53;4.20;;;;;;;;;;5083638;28;20130;-84
2023/06/19 05:16:09;;;;;;;7.50;4.10;;;;;;;;;;5079633;28;20078;-84
2023/06/19 05:18:35;;;;;;;6.40;3.95;;;;;;;;;;5061660;28;20055;-85
2023/06/19 05:21:01;;;;;;;;;;;;;;;;;;5068516;28;20056;-82
2023/06/19 05:23:27;;;;;;;8.10;4.23;;;;;;;;;;5081530;28;19920;-77
2023/06/19 05:25:53;;;;;;;8.98;4.30;;;;;;;;;;5080893;28;20128;-80
2023/06/19 05:28:19;;;;;;;7.18;4.32;;;;;;;;;;5068984;28;20051;-82
2023/06/19 05:30:45;;;;;;;;;;;;;;;;;;5071830;28;20115;-81
2023/06/19 05:33:15;;;;;;;7.03;4.60;;;;;;;;;;5072430;28;20007;-76
2023/06/19 05:35:41;;;;;;;7.30;3.92;;;;;;;;;;5087548;28;20052;-78
2023/06/19 05:38:07;;;;;;;7.68;4.05;;;;;;;;;;5074830;28;20102;-79
2023/06/19 05:40:33;;;;;;;;;;;;;;;;;;5088265;28;20114;-78
2023/06/19 05:42:59;;;;;;;8.57;4.00;;;;;;;;;;5075704;28;19928;-81
2023/06/19 05:45:25;;;;;;;;;;;;;;;;;;5061430;28;20060;-80
2023/06/19 05:47:51;;;;;;;8.18;4.50;;;;;;;;;;5068037;28;19921;-79
2023/06/19 05:50:17;;;;;;;6.35;4.05;;;;;;;;;;5070367;28;20080;-77
2023/06/19 05:52:43;;;;;;;;;;;;;;;;;;5075654;28;20052;-77
2023/06/19 05:55:10;;;;;;;9.80;4.13;;;;;;;;;;5082077;28;19931;-81
2023/06/19 05:57:37;;;;;;;8.35;4.53;;;;;;;;;;5106588;28;20048;-82
2023/06/19 06:00:03;;;;;;;6.72;4.53;;;;;;;;;;5086642;28;20048;-81
2023/06/19 06:02:29;;;;;;;7.22;4.80;;;;;;;;;;5089169;28;20476;-81
2023/06/19 06:04:56;;;;;;;;;;;;;;;;;;5072158;28;20503;-81
2023/06/19 06:07:22;;;;;;;10.07;5.38;;;;;;;;;;5088654;28;19920;-82
2023/06/19 06:09:48;;;;;;;12.77;5.18;;;;;;;;;;5084836;28;20066;-81
2023/06/19 06:12:14;;;;;;;8.80;4.80;;;;;;;;;;5084988;28;20040;-81
2023/06/19 06:14:43;;;;;;;6.90;4.40;;;;;;;;;;5087400;28;20063;-82
2023/06/19 06:17:09;;;;;;;7.13;4.40;;;;;;;;;;5091233;28;20095;-81
2023/06/19 06:19:36;;;;;;;6.95;4.70;;;;;;;;;;5091680;28;20055;-81
2023/06/19 06:22:03;;;;;;;6.40;4.10;;;;;;;;;;5082224;28;20413;-81
2023/06/19 06:24:29;;;;;;;7.65;4.68;;;;;;;;;;5091650;28;20047;-82
2023/06/19 06:26:55;;;;;;;;;;;;;;;;;;5073904;28;20039;-82
2023/06/19 06:29:21;;;;;;;10.80;5.07;;;;;;;;;;5090568;28;20006;-81
2023/06/19 06:31:47;;;;;;;9.32;5.13;;;;;;;;;;5090178;28;20048;-82
2023/06/19 06:34:14;;;;;;;7.68;4.95;;;;;;;;;;5065073;28;20086;-81
2023/06/19 06:36:40;;;;;;;8.80;4.80;;;;;;;;;;5067789;28;20045;-82
2023/06/19 06:39:06;;;;;;;10.10;5.10;;;;;;;;;;5059594;28;20049;-81
2023/06/19 06:41:32;;;;;;;;;;;;;;;;;;5071821;28;20051;-82
2023/06/19 06:43:58;;;;;;;9.50;5.10;;;;;;;;;;5057952;28;19921;-82
2023/06/19 06:46:24;;;;;;;8.95;4.50;;;;;;;;;;5068364;28;20111;-82
2023/06/19 06:48:50;;;;;;;7.90;4.72;;;;;;;;;;5067268;28;20052;-82
2023/06/19 06:51:16;;;;;;;8.23;5.40;;;;;;;;;;5051649;28;20403;-81
2023/06/19 06:53:42;;;;;;;8.65;5.30;;;;;;;;;;5079980;28;20044;-82
2023/06/19 06:56:08;;;;;;;;;;;;;;;;;;5072064;28;20143;-81
2023/06/19 06:58:34;;;;;;;10.05;5.82;;;;;;;;;;5064638;28;20461;-82
2023/06/19 07:01:00;;;;;;;;;;;;;;;;;;5072241;28;20056;-82
2023/06/19 07:03:29;;;;;;;10.52;6.07;;;;;;;;;;5059463;28;19929;-83
2023/06/19 07:05:55;;;;;;;9.07;6.00;;;;;;;;;;5067493;28;20063;-82
2023/06/19 07:08:21;;;;;;;9.35;5.85;;;;;;;;;;5050613;28;20561;-81
2023/06/19 07:10:47;;;;;;;10.40;6.00;;;;;;;;;;5050584;28;20857;-81
2023/06/19 07:13:13;;;;;;;9.85;6.00;;;;;;;;;;5051351;28;20052;-81
2023/06/19 07:15:39;;;;;;;8.82;5.70;;;;;;;;;;5051851;28;20156;-81
2023/06/19 07:18:05;;;;;;;8.98;5.43;;;;;;;;;;5052409;28;20051;-81
2023/06/19 07:20:31;;;;;;;8.05;5.25;;;;;;;;;;5068547;28;20517;-81
2023/06/19 07:22:57;;;;;;;9.88;5.55;;;;;;;;;;5078998;28;20131;-80
2023/06/19 07:25:25;;;;;;;7.95;5.70;;;;;;;;;;5071023;28;20105;-81
2023/06/19 07:27:51;;;;;;;8.82;6.05;;;;;;;;;;5070564;28;20122;-81
2023/06/19 07:30:17;;;;;;;9.65;5.80;;;;;;;;;;5072011;28;20132;-81
2023/06/19 07:32:43;;;;;;;9.52;6.22;;;;;;;;;;5069872;28;20087;-81
2023/06/19 07:35:11;;;;;;;10.10;6.13;;;;;;;;;;5071173;28;20071;-81
2023/06/19 07:37:37;;;;;;;8.32;5.90;;;;;;;;;;5059870;28;20091;-81
2023/06/19 07:40:03;;;;;;;11.70;5.97;;;;;;;;;;5070964;28;20052;-81
2023/06/19 07:42:29;;;;;;;10.00;5.90;;;;;;;;;;5066809;28;20510;-83
2023/06/19 07:44:55;;;;;;;10.65;5.88;;;;;;;;;;5049875;28;20075;-81
2023/06/19 07:47:21;;;;;;;10.80;6.45;;;;;;;;;;5053240;28;20057;-81
2023/06/19 07:49:47;;;;;;;10.07;6.53;;;;;;;;;;5085205;28;20048;-81
2023/06/19 07:52:14;;;;;;;9.68;5.93;;;;;;;;;;5058750;28;20054;-81
2023/06/19 07:54:53;;;;;;;9.35;6.07;;;;;;;;;;5070224;28;20478;-82
2023/06/19 07:57:20;;;;;;;9.75;6.22;;;;;;;;;;5070748;28;20060;-81
2023/06/19 07:59:46;;;;;;;10.30;5.18;;;;;;;;;;5069865;28;20374;-81
2023/06/19 08:02:12;;;;;;;7.78;5.20;;;;;;;;;;5069009;28;20048;-81
2023/06/19 08:04:39;;;;;;;8.38;5.43;;;;;;;;;;5069199;28;20143;-81
2023/06/19 08:07:05;;;;;;;6.68;4.55;;;;;;;;;;5062537;28;20045;-81
2023/06/19 08:09:31;;;;;;;9.60;5.15;;;;;;;;;;5070168;28;20414;-81
2023/06/19 08:11:57;;;;;;;9.98;5.80;;;;;;;;;;5070101;28;20052;-81
2023/06/19 08:14:23;;;;;;;8.70;5.35;;;;;;;;;;5070180;28;20048;-81
2023/06/19 08:16:49;;;;;;;12.10;6.30;;;;;;;;;;5069255;28;20048;-81
2023/06/19 08:19:15;;;;;;;14.32;5.68;;;;;;;;;;5069078;28;20056;-81
2023/06/19 08:21:43;;;;;;;10.40;6.90;;;;;;;;;;5066466;28;20052;-81
2023/06/19 08:24:09;;;;;;;9.23;6.20;;;;;;;;;;5064214;28;20049;-81
2023/06/19 08:26:35;;;;;;;15.95;6.60;;;;;;;;;;5066349;28;20098;-83
2023/06/19 08:29:01;;;;;;;11.10;6.97;;;;;;;;;;5050964;28;20048;-81
2023/06/19 08:31:28;;;;;;;12.20;6.65;;;;;;;;;;5066712;28;20060;-81
2023/06/19 08:33:55;;;;;;;10.13;6.90;;;;;;;;;;5048748;28;20056;-81
2023/06/19 08:36:21;;;;;;;10.73;6.70;;;;;;;;;;5049410;28;20139;-81
2023/06/19 08:38:49;;;;;;;11.15;7.05;;;;;;;;;;5048071;28;20632;-80
2023/06/19 08:41:15;;;;;;;10.57;6.57;;;;;;;;;;5050157;28;20136;-78
2023/06/19 08:43:42;;;;;;;9.98;6.97;;;;;;;;;;5084472;28;20147;-80
2023/06/19 08:46:12;;;;;;;10.50;7.40;;;;;;;;;;5063489;28;20056;-79
2023/06/19 08:48:38;;;;;;;11.25;7.50;;;;;;;;;;5068159;28;20124;-79
2023/06/19 08:51:05;;;;;;;11.63;7.47;;;;;;;;;;5069808;28;20066;-84
2023/06/19 08:53:35;;;;;;;12.77;8.65;;;;;;;;;;5029477;28;20045;-81
2023/06/19 08:56:03;;;;;;;15.20;8.13;;;;;;;;;;5067672;28;20080;-82
2023/06/19 08:58:29;;;;;;;11.68;8.48;;;;;;;;;;5068285;28;20052;-82
2023/06/19 09:00:58;;;;;;;11.48;8.35;;;;;;;;;;5068633;28;20823;-81
2023/06/19 09:03:24;;;;;;;13.20;8.73;;;;;;;;;;5068656;28;20426;-80
2023/06/19 09:05:50;;;;;;;12.57;8.20;;;;;;;;;;5051346;28;20048;-82
2023/06/19 09:08:17;;;;;;;10.18;6.25;;;;;;;;;;5064236;28;20538;-81
2023/06/19 09:10:44;;;;;;;8.68;5.93;;;;;;;;;;5062272;28;20036;-82
2023/06/19 09:13:10;;;;;;;10.25;6.10;;;;;;;;;;5066924;28;20044;-81
2023/06/19 09:15:36;;;;;;;11.30;6.78;;;;;;;;;;5071720;28;20193;-81
2023/06/19 09:18:07;;;;;;;13.85;6.75;;;;;;;;;;5081253;28;20119;-81
2023/06/19 09:20:34;;;;;;;14.18;6.85;;;;;;;;;;5081943;28;20063;-81
2023/06/19 09:23:00;;;;;;;12.00;7.82;;;;;;;;;;5075766;28;20386;-81
2023/06/19 09:25:26;;;;;;;13.30;8.13;;;;;;;;;;5089806;28;20044;-81
2023/06/19 09:27:56;;;;;;;12.93;8.02;;;;;;;;;;5088565;28;20051;-80
2023/06/19 09:30:22;;;;;;;12.98;8.38;;;;;;;;;;5089534;28;20051;-77
2023/06/19 09:32:49;;;;;;;12.63;8.05;;;;;;;;;;5088123;28;20214;-82
2023/06/19 09:35:15;;;;;;;10.13;7.53;;;;;;;;;;5089516;28;20090;-82
2023/06/19 09:37:42;;;;;;;12.82;7.88;;;;;;;;;;5075054;28;20102;-83
2023/06/19 09:40:11;;;;;;;14.77;8.63;;;;;;;;;;5052140;28;20053;-82
2023/06/19 09:42:39;;;;;;;14.68;8.98;;;;;;;;;;5064579;28;20049;-82
2023/06/19 09:45:06;;;;;;;12.10;9.43;;;;;;;;;;5088481;28;20050;-82
2023/06/19 09:47:35;;;;;;;15.73;11.27;;;;;;;;;;5087256;28;20064;-82
2023/06/19 09:50:02;;;;;;;14.40;11.23;;;;;;;;;;5088313;28;20290;-79
2023/06/19 09:52:29;;;;;;;12.73;10.48;;;;;;;;;;5064481;28;20044;-86
2023/06/19 09:54:57;;;;;;;12.38;9.38;;;;;;;;;;5075146;28;20048;-83
2023/06/19 09:57:23;;;;;;;14.95;11.80;;;;;;;;;;5088110;28;20113;-82
2023/06/19 09:59:56;;;;;;;15.45;11.13;;;;;;;;;;5052637;28;20498;-83
2023/06/19 10:02:22;;;;;;;15.90;11.73;;;;;;;;;;5062723;28;20054;-82
2023/06/19 10:04:55;;;;;;;13.02;10.68;;;;;;;;;;5085037;28;20048;-83
2023/06/19 10:07:27;;;;;;;16.35;10.63;;;;;;;;;;5085328;28;20044;-84
2023/06/19 10:09:56;;;;;;;15.82;12.07;;;;;;;;;;5087536;28;20074;-85
2023/06/19 10:12:22;;;;;;;17.05;12.13;;;;;;;;;;5092840;28;20051;-83
2023/06/19 10:14:50;;;;;;;15.63;11.82;;;;;;;;;;5072325;28;20048;-83
2023/06/19 10:17:19;;;;;;;11.82;10.07;;;;;;;;;;5072857;28;20048;-81
2023/06/19 10:19:52;;;;;;;16.40;11.07;;;;;;;;;;5070560;28;20094;-83
2023/06/19 10:22:24;;;;;;;12.13;7.28;;;;;;;;;;5071375;28;20094;-81
2023/06/19 10:24:50;;;;;;;9.55;7.72;;;;;;;;;;5051537;28;20158;-81
2023/06/19 10:27:22;;;;;;;10.93;7.70;;;;;;;;;;5063071;28;20071;-82
2023/06/19 10:30:00;;;;;;;11.50;8.27;;;;;;;;;;5070975;28;20049;-81
2023/06/19 10:32:26;;;;;;;31.45;8.00;;;;;;;;;;5069699;28;20533;-80
2023/06/19 10:34:52;;;;;;;12.40;8.88;;;;;;;;;;5051567;28;20045;-79
2023/06/19 10:37:18;;;;;;;12.00;8.35;;;;;;;;;;5077735;28;20044;-81
2023/06/19 10:39:44;;;;;;;11.10;7.10;;;;;;;;;;5071820;28;20482;-84
2023/06/19 10:42:10;;;;;;;14.93;7.30;;;;;;;;;;5071484;28;20087;-82
2023/06/19 10:44:37;;;;;;;12.45;7.93;;;;;;;;;;5072174;28;20053;-81
2023/06/19 10:47:04;;;;;;;12.05;7.90;;;;;;;;;;5080357;28;20043;-81
2023/06/19 10:49:31;;;;;;;15.02;8.18;;;;;;;;;;5091399;28;20044;-80
2023/06/19 10:51:59;;;;;;;13.68;8.35;;;;;;;;;;5086304;28;20067;-80
2023/06/19 10:54:26;;;;;;;12.55;8.32;;;;;;;;;;5053133;28;20049;-78
2023/06/19 10:56:52;;;;;;;13.20;8.75;;;;;;;;;;5051568;28;20142;-80
2023/06/19 10:59:18;;;;;;;14.38;8.40;;;;;;;;;;5060801;28;20059;-80
2023/06/19 11:01:51;;;;;;;13.23;8.73;;;;;;;;;;5071837;28;20494;-80
2023/06/19 11:04:17;;;;;;;13.77;8.48;;;;;;;;;;5069209;28;20098;-80
2023/06/19 11:06:45;;;;;;;16.90;11.02;;;;;;;;;;5072439;28;20059;-80
2023/06/19 11:09:12;;;;;;;15.10;10.27;;;;;;;;;;5083906;28;20412;-82
2023/06/19 11:11:39;;;;;;;14.70;9.65;;;;;;;;;;5079704;28;20542;-81
2023/06/19 11:14:05;;;;;;;16.10;9.52;;;;;;;;;;5064682;28;20061;-80
2023/06/19 11:16:31;;;;;;;15.88;10.07;;;;;;;;;;5063667;28;20140;-81
2023/06/19 11:18:58;;;;;;;14.32;9.80;;;;;;;;;;5072279;28;20557;-81
2023/06/19 11:21:32;;;;;;;12.50;8.82;;;;;;;;;;5067139;28;20110;-81
2023/06/19 11:24:00;;;;;;;17.95;9.43;;;;;;;;;;5103539;28;20058;-80
2023/06/19 11:26:26;;;;;;;17.75;10.48;;;;;;;;;;5073539;28;20048;-81
2023/06/19 11:28:52;;;;;;;17.88;10.07;;;;;;;;;;5089805;28;20086;-81
2023/06/19 11:31:25;;;;;;;17.30;9.68;;;;;;;;;;5081150;28;20051;-79
2023/06/19 11:33:59;;;;;;;15.52;9.85;;;;;;;;;;5088850;28;20048;-84
2023/06/19 11:36:25;;;;;;;12.02;8.93;;;;;;;;;;5086336;28;20097;-80
2023/06/19 11:38:54;;;;;;;12.65;7.45;;;;;;;;;;5076371;28;20401;-81
2023/06/19 11:41:27;;;;;;;13.07;8.70;;;;;;;;;;5090017;28;20048;-82
2023/06/19 11:44:00;;;;;;;12.80;8.30;;;;;;;;;;5079501;28;20431;-83
2023/06/19 11:46:30;;;;;;;12.10;8.13;;;;;;;;;;5082577;28;20090;-83
2023/06/19 11:49:09;;;;;;;12.77;8.55;;;;;;;;;;5088232;28;20044;-82
2023/06/19 11:51:35;;;;;;;12.35;8.75;;;;;;;;;;5088701;28;20066;-83
2023/06/19 11:54:02;;;;;;;15.35;8.93;;;;;;;;;;5079250;28;20101;-81
2023/06/19 11:56:29;;;;;;;12.93;8.30;;;;;;;;;;5088733;28;20118;-80
2023/06/19 11:58:55;;;;;;;12.05;8.27;;;;;;;;;;5060702;28;20036;-81
2023/06/19 12:01:21;;;;;;;14.57;9.30;;;;;;;;;;5075288;28;20044;-81
2023/06/19 12:03:47;;;;;;;13.75;8.40;;;;;;;;;;5065570;28;20080;-80
2023/06/19 12:06:13;;;;;;;13.05;8.75;;;;;;;;;;5085881;28;20044;-81
2023/06/19 12:08:39;;;;;;;14.13;9.27;;;;;;;;;;5087117;28;20086;-81
2023/06/19 12:11:08;;;;;;;11.90;7.57;;;;;;;;;;5084533;28;20074;-81
2023/06/19 12:13:34;;;;;;;14.60;8.68;;;;;;;;;;5090297;28;20051;-81
2023/06/19 12:16:00;;;;;;;16.75;9.75;;;;;;;;;;5079004;28;20097;-82
2023/06/19 12:18:26;;;;;;;14.20;9.40;;;;;;;;;;5088963;28;20052;-82
2023/06/19 12:20:55;;;;;;;12.48;8.32;;;;;;;;;;5077828;28;20056;-82
2023/06/19 12:23:21;;;;;;;15.10;8.98;;;;;;;;;;5060719;28;20074;-80
2023/06/19 12:25:47;;;;;;;15.32;9.38;;;;;;;;;;5089532;28;20097;-81
2023/06/19 12:28:18;;;;;;;13.05;8.90;;;;;;;;;;5066235;28;20123;-81
2023/06/19 12:30:44;;;;;;;12.65;8.30;;;;;;;;;;5069198;28;20056;-81
2023/06/19 12:33:10;;;;;;;14.63;9.10;;;;;;;;;;5065430;28;20044;-81
2023/06/19 12:35:39;;;;;;;14.68;9.38;;;;;;;;;;5069611;28;20048;-80
2023/06/19 12:38:05;;;;;;;12.30;8.85;;;;;;;;;;5059938;28;20047;-81
2023/06/19 12:40:31;;;;;;;15.75;9.65;;;;;;;;;;5062257;28;20135;-81
2023/06/19 12:42:57;;;;;;;13.23;9.27;;;;;;;;;;5069136;28;20052;-83
2023/06/19 12:45:23;;;;;;;16.95;9.80;;;;;;;;;;5079852;28;20084;-81
2023/06/19 12:47:49;;;;;;;17.17;11.15;;;;;;;;;;5068069;28;20044;-81
2023/06/19 12:50:15;;;;;;;15.25;10.38;;;;;;;;;;5067808;28;20481;-81
2023/06/19 12:52:41;;;;;;;18.85;9.95;;;;;;;;;;5054488;28;20123;-80
2023/06/19 12:55:07;;;;;;;17.02;9.93;;;;;;;;;;5068772;28;20048;-81
2023/06/19 12:57:33;;;;;;;13.75;10.02;;;;;;;;;;5049957;28;20444;-81
2023/06/19 12:59:59;;;;;;;14.70;9.60;;;;;;;;;;5069248;28;20133;-82
2023/06/19 13:02:26;;;;;;;17.30;10.20;;;;;;;;;;5084934;28;20044;-82
2023/06/19 13:04:52;;;;;;;17.23;11.00;;;;;;;;;;5069068;28;20080;-81
2023/06/19 13:07:19;;;;;;;15.32;11.18;;;;;;;;;;5065313;28;20041;-81
2023/06/19 13:09:45;;;;;;;14.80;10.20;;;;;;;;;;5059107;28;20080;-81
2023/06/19 13:12:11;;;;;;;16.00;9.95;;;;;;;;;;5051854;28;20053;-81
2023/06/19 13:14:37;;;;;;;16.67;10.52;;;;;;;;;;5051255;28;20090;-81
2023/06/19 13:17:03;;;;;;;14.57;9.95;;;;;;;;;;5066871;28;20053;-81
2023/06/19 13:19:30;;;;;;;14.38;10.10;;;;;;;;;;5067071;28;20058;-81
2023/06/19 13:21:56;;;;;;;15.27;10.63;;;;;;;;;;5068883;28;20048;-81
2023/06/19 13:24:22;;;;;;;12.20;9.02;;;;;;;;;;5067655;28;20893;-81
2023/06/19 13:26:48;;;;;;;13.80;9.48;;;;;;;;;;5069276;28;20075;-81
2023/06/19 13:29:15;;;;;;;29.25;10.85;;;;;;;;;;5068129;28;20047;-81
2023/06/19 13:31:41;;;;;;;13.15;9.10;;;;;;;;;;5059253;28;20036;-81
2023/06/19 13:34:07;;;;;;;11.70;7.85;;;;;;;;;;5082295;28;20044;-81
2023/06/19 13:36:33;;;;;;;17.42;10.15;;;;;;;;;;5054393;28;20044;-81
2023/06/19 13:38:59;;;;;;;14.43;8.30;;;;;;;;;;5069229;28;20052;-81
2023/06/19 13:41:26;;;;;;;18.95;8.15;;;;;;;;;;5071901;28;20151;-82
2023/06/19 13:43:53;;;;;;;15.13;8.43;;;;;;;;;;5056483;28;20060;-82
2023/06/19 13:46:21;;;;;;;14.32;8.80;;;;;;;;;;5072415;28;20106;-81
2023/06/19 13:48:50;;;;;;;14.88;8.98;;;;;;;;;;5072327;28;20085;-81
2023/06/19 13:51:17;;;;;;;15.38;10.10;;;;;;;;;;5071982;28;20135;-81
2023/06/19 13:53:44;;;;;;;14.73;10.73;;;;;;;;;;5071408;28;20049;-81
2023/06/19 13:56:10;;;;;;;15.55;11.02;;;;;;;;;;5072439;28;20075;-81
2023/06/19 13:58:36;;;;;;;17.70;10.57;;;;;;;;;;5059181;28;20037;-81
2023/06/19 14:01:02;;;;;;;14.23;10.80;;;;;;;;;;5052689;28;20128;-82
2023/06/19 14:03:28;;;;;;;15.60;9.70;;;;;;;;;;5055393;28;20051;-81
2023/06/19 14:05:55;;;;;;;13.57;10.23;;;;;;;;;;5072623;28;20179;-81
2023/06/19 14:08:21;;;;;;;13.40;8.93;;;;;;;;;;5071833;28;20068;-81
2023/06/19 14:10:47;;;;;;;11.35;8.65;;;;;;;;;;5072218;28;20049;-81
2023/06/19 14:13:13;;;;;;;17.85;9.73;;;;;;;;;;5071645;28;20072;-81
2023/06/19 14:15:40;;;;;;;14.77;10.07;;;;;;;;;;5065741;28;20094;-81
2023/06/19 14:18:06;;;;;;;14.77;10.27;;;;;;;;;;5067241;28;20049;-81
2023/06/19 14:20:32;;;;;;;15.93;9.75;;;;;;;;;;5057078;28;20076;-83
2023/06/19 14:22:58;;;;;;;13.70;8.20;;;;;;;;;;5074548;28;20044;-80
2023/06/19 14:25:24;;;;;;;14.43;9.02;;;;;;;;;;5072722;28;20049;-82
2023/06/19 14:27:50;;;;;;;14.27;9.73;;;;;;;;;;5072384;28;20489;-80
2023/06/19 14:30:16;;;;;;;14.63;10.15;;;;;;;;;;5072925;28;20132;-78
2023/06/19 14:32:42;;;;;;;16.08;8.90;;;;;;;;;;5073598;28;20070;-78
2023/06/19 14:35:08;;;;;;;16.35;9.60;;;;;;;;;;5072598;28;20497;-80